Time;durP1;ratioP1;P1;durP2;ratioP2;P2;SDS_P1;SDS_P2;PMS_P1;PMS_P2;Temp;Humidity;BMP_temperature;BMP_pressure;BME280_temperature;BME280_humidity;BME280_pressure;Samples;Min_cycle;Max_cycle;Signal;HPM_P1;HPM_P2
2022/01/26 00:00:18;;;;;;;;;5.25;5.25;;;;;12.12;39.27;99423.78;6306348;22;102489;-76
2022/01/26 00:05:53;;;;;;;;;9.50;5.75;;;;;12.14;39.22;99425.28;6305234;22;102187;-76
2022/01/26 00:08:24;;;;;;;;;4.50;4.00;;;;;12.14;38.92;99421.72;6303441;22;102118;-75
2022/01/26 00:10:51;;;;;;;;;8.00;6.75;;;;;12.12;39.52;99418.34;6300868;22;102629;-75
2022/01/26 00:13:18;;;;;;;;;8.50;5.50;;;;;12.14;39.31;99424.44;6304123;22;103973;-76
2022/01/26 00:15:45;;;;;;;;;8.50;8.00;;;;;12.14;39.45;99419.84;6306285;22;102176;-76
2022/01/26 00:18:14;;;;;;;;;7.00;6.75;;;;;12.16;39.41;99412.34;6299898;22;102338;-76
2022/01/26 00:20:50;;;;;;;;;7.25;4.50;;;;;12.18;39.45;99415.72;6308507;22;102331;-76
2022/01/26 00:26:00;;;;;;;;;5.00;4.00;;;;;12.21;39.58;99411.78;6309207;22;101895;-76
2022/01/26 00:28:34;;;;;;;;;6.50;5.50;;;;;12.20;39.07;99412.84;6305250;22;102260;-76
2022/01/26 00:39:18;;;;;;;;;5.25;5.25;;;;;12.21;39.51;99420.75;6307705;22;102238;-76
2022/01/26 00:41:46;;;;;;;;;5.50;4.75;;;;;12.21;38.84;99411.78;6309707;22;110776;-75
2022/01/26 00:44:14;;;;;;;;;8.75;7.00;;;;;12.21;39.06;99409.91;6305833;22;109069;-76
2022/01/26 00:46:48;;;;;;;;;8.50;4.00;;;;;12.22;39.62;99417.03;6310200;22;102088;-76
2022/01/26 00:49:17;;;;;;;;;7.75;7.00;;;;;12.22;39.06;99413.47;6276550;22;102482;-76
2022/01/26 00:51:44;;;;;;;;;8.00;7.00;;;;;12.20;39.69;99402.84;6308087;22;102459;-76
2022/01/26 00:54:11;;;;;;;;;7.00;7.00;;;;;12.20;38.78;99407.41;6309130;22;108574;-76
2022/01/26 00:56:38;;;;;;;;;7.00;5.25;;;;;12.15;39.26;99410.69;6272830;22;102422;-76
2022/01/26 00:59:06;;;;;;;;;5.25;4.00;;;;;12.13;39.43;99420.88;6275481;22;102433;-76
2022/01/26 01:01:33;;;;;;;;;6.75;5.25;;;;;12.12;39.11;99408.34;6263033;22;102609;-75
2022/01/26 01:04:00;;;;;;;;;5.25;4.00;;;;;12.10;39.72;99399.59;6249927;22;103996;-75
2022/01/26 01:06:31;;;;;;;;;2.00;2.00;;;;;12.11;39.81;99403.16;6247406;22;109296;-75
2022/01/26 01:08:58;;;;;;;;;7.50;5.25;;;;;12.10;39.03;99405.00;6267662;22;102273;-75
2022/01/26 01:11:25;;;;;;;;;7.00;5.25;;;;;12.09;39.21;99403.31;6249922;22;102773;-75
2022/01/26 01:13:54;;;;;;;;;7.50;7.00;;;;;12.09;39.11;99406.03;6279340;22;104212;-76
2022/01/26 01:16:22;;;;;;;;;3.25;3.00;;;;;12.09;40.07;99400.59;6276947;22;102393;-75
2022/01/26 01:27:30;;;;;;;;;4.25;3.25;;;;;12.07;39.19;99391.81;6273042;22;102277;-76
2022/01/26 01:30:08;;;;;;;;;7.75;6.50;;;;;12.07;39.25;99397.25;6276112;22;102102;-75
2022/01/26 01:32:51;;;;;;;;;8.25;6.75;;;;;12.08;39.79;99394.34;6271622;22;102390;-75
2022/01/26 01:35:19;;;;;;;;;4.00;3.50;;;;;12.07;39.98;99397.25;6287917;22;108959;-75
2022/01/26 01:37:46;;;;;;;;;4.00;3.75;;;;;12.05;39.87;99400.16;6275459;22;102382;-75
2022/01/26 01:40:14;;;;;;;;;4.75;4.25;;;;;12.05;39.62;99396.59;6271836;22;102811;-76
2022/01/26 01:42:41;;;;;;;;;4.25;4.25;;;;;12.03;39.09;99395.94;6268045;22;102072;-76
2022/01/26 01:45:09;;;;;;;;;5.50;3.75;;;;;11.99;40.20;99387.34;6262590;22;103945;-75
2022/01/26 01:47:36;;;;;;;;;7.25;4.00;;;;;11.97;39.22;99385.88;6276056;22;102242;-75
2022/01/26 01:50:08;;;;;;;;;4.25;4.25;;;;;11.96;39.33;99379.63;6274013;22;102729;-76
2022/01/26 01:52:35;;;;;;;;;5.50;4.00;;;;;11.95;39.59;99387.94;6268410;22;102385;-75
2022/01/26 01:55:04;;;;;;;;;4.00;4.00;;;;;11.94;40.02;99383.53;6273323;22;105087;-76
2022/01/26 01:57:32;;;;;;;;;4.00;4.00;;;;;11.93;39.80;99390.00;6304700;22;102075;-76
2022/01/26 01:59:59;;;;;;;;;7.25;5.00;;;;;11.92;39.66;99380.19;6290813;22;102095;-76
2022/01/26 02:02:26;;;;;;;;;8.25;7.00;;;;;11.91;39.80;99375.78;6260782;22;102195;-75
2022/01/26 02:04:53;;;;;;;;;4.75;4.00;;;;;11.94;39.50;99375.41;6290439;22;110888;-75
2022/01/26 02:07:20;;;;;;;;;4.00;4.00;;;;;11.90;40.20;99377.66;6274657;22;102077;-75
2022/01/26 02:09:47;;;;;;;;;7.00;5.00;;;;;11.90;39.81;99379.53;6277144;22;102579;-75
2022/01/26 02:12:16;;;;;;;;;6.25;4.00;;;;;11.91;39.94;99367.66;6243135;22;102587;-75
2022/01/26 02:14:49;;;;;;;;;3.75;3.25;;;;;11.91;39.63;99367.66;6267272;22;103986;-75
2022/01/26 02:20:05;;;;;;;;;3.75;3.00;;;;;11.90;40.07;99368.69;6292396;22;108383;-76
2022/01/26 02:55:52;;;;;;;;;6.50;4.00;;;;;11.84;39.80;99359.44;6298039;22;102455;-75
2022/01/26 03:06:16;;;;;;;;;3.00;3.00;;;;;11.85;40.30;99338.59;6310473;22;102553;-75
2022/01/26 03:08:50;;;;;;;;;4.00;3.00;;;;;11.88;39.84;99332.81;6307930;22;104079;-76
2022/01/26 03:11:18;;;;;;;;;4.00;3.75;;;;;11.91;39.56;99338.69;6304887;22;102271;-75
2022/01/26 03:13:57;;;;;;;;;7.25;5.50;;;;;11.94;39.64;99340.16;6279705;22;102302;-76
2022/01/26 03:16:39;;;;;;;;;4.50;3.50;;;;;11.97;39.60;99345.22;6299468;22;102103;-75
2022/01/26 03:21:52;;;;;;;;;3.00;3.00;;;;;12.03;40.10;99348.00;6296299;22;102528;-75
2022/01/26 03:35:29;;;;;;;;;3.50;3.00;;;;;12.22;39.50;99341.09;6311044;22;102964;-75
2022/01/26 03:37:57;;;;;;;;;4.00;3.00;;;;;12.25;39.52;99340.72;6307256;22;102219;-75
2022/01/26 03:40:31;;;;;;;;;3.75;2.25;;;;;12.26;39.95;99347.81;6304239;22;104556;-75
2022/01/26 03:42:58;;;;;;;;;3.00;3.00;;;;;12.28;39.50;99345.75;6304556;22;102527;-75
2022/01/26 03:45:26;;;;;;;;;3.50;3.50;;;;;12.31;39.93;99339.94;6304618;22;102313;-75
2022/01/26 03:47:55;;;;;;;;;3.25;3.00;;;;;12.35;39.10;99335.81;6281891;22;102403;-75
2022/01/26 03:50:23;;;;;;;;;3.00;3.00;;;;;12.36;40.01;99340.22;6309993;22;103666;-75
2022/01/26 03:52:50;;;;;;;;;4.75;2.00;;;;;12.41;39.04;99340.47;6308467;22;104882;-75
2022/01/26 03:55:17;;;;;;;;;3.25;2.00;;;;;12.43;39.38;99342.97;6282664;22;102509;-75
2022/01/26 03:57:44;;;;;;;;;4.50;2.50;;;;;12.45;39.24;99344.47;6307236;22;102129;-76
2022/01/26 04:00:12;;;;;;;;;3.00;2.25;;;;;12.47;39.71;99330.72;6309408;22;104012;-75
2022/01/26 04:02:39;;;;;;;;;4.00;4.00;;;;;12.50;39.91;99347.44;6303819;22;102289;-75
2022/01/26 04:05:10;;;;;;;;;3.25;3.00;;;;;12.53;39.93;99338.06;6310737;22;102092;-76
2022/01/26 04:07:38;;;;;;;;;5.25;3.25;;;;;12.53;38.91;99341.59;6303304;22;102299;-76
2022/01/26 04:13:05;;;;;;;;;2.75;1.75;;;;;12.60;39.02;99340.84;6233481;22;101942;-75
2022/01/26 04:15:35;;;;;;;;;3.25;2.75;;;;;12.62;39.68;99341.47;6308805;22;102233;-75
2022/01/26 04:18:05;;;;;;;;;4.00;3.00;;;;;12.63;39.75;99337.72;6301878;22;102465;-76
2022/01/26 04:20:37;;;;;;;;;3.00;3.00;;;;;12.63;39.14;99337.72;6306721;22;103967;-75
2022/01/26 04:23:13;;;;;;;;;2.75;2.00;;;;;12.64;39.77;99332.09;6307799;22;102131;-76
2022/01/26 04:25:43;;;;;;;;;1.25;1.25;;;;;12.64;39.31;99337.53;6304697;22;102431;-76
2022/01/26 04:28:16;;;;;;;;;2.00;2.00;;;;;12.65;39.69;99335.66;6277923;22;104737;-75
2022/01/26 04:30:43;;;;;;;;;2.25;2.25;;;;;12.66;39.56;99334.59;6300461;22;103874;-75
2022/01/26 04:33:10;;;;;;;;;3.25;2.75;;;;;12.66;39.09;99337.31;6305319;22;109180;-76
2022/01/26 04:35:43;;;;;;;;;3.50;3.00;;;;;12.64;39.54;99325.84;6299750;22;102485;-75
2022/01/26 04:40:44;;;;;;;;;2.00;1.75;;;;;12.66;39.58;99340.03;6287438;22;104115;-75
2022/01/26 04:43:18;;;;;;;;;2.00;2.00;;;;;12.65;39.20;99339.22;6306009;22;102420;-75
2022/01/26 04:45:45;;;;;;;;;1.75;1.50;;;;;12.66;39.51;99340.03;6307421;22;111093;-75
2022/01/26 04:48:12;;;;;;;;;3.00;2.00;;;;;12.65;39.62;99338.38;6313255;22;102474;-75
2022/01/26 04:50:39;;;;;;;;;3.50;2.50;;;;;12.64;39.59;99339.41;6306452;22;103978;-76
2022/01/26 04:53:06;;;;;;;;;2.75;2.00;;;;;12.63;39.39;99344.00;6303874;22;102187;-76
2022/01/26 04:55:33;;;;;;;;;2.75;2.00;;;;;12.62;39.60;99333.31;6306475;22;101898;-76
2022/01/26 04:58:00;;;;;;;;;2.50;2.00;;;;;12.61;39.43;99334.38;6310480;22;104235;-75
2022/01/26 05:00:27;;;;;;;;;2.25;2.00;;;;;12.59;39.16;99333.72;6298565;22;104133;-75
2022/01/26 05:02:55;;;;;;;;;1.75;1.75;;;;;12.59;38.86;99334.56;6306781;22;102516;-75
2022/01/26 05:05:22;;;;;;;;;2.00;2.00;;;;;12.59;39.06;99331.84;6308414;22;102477;-76
2022/01/26 05:07:49;;;;;;;;;2.00;2.00;;;;;12.58;39.01;99324.75;6307558;22;102167;-76
2022/01/26 05:10:16;;;;;;;;;2.00;2.00;;;;;12.59;39.69;99331.84;6306820;22;108934;-76
2022/01/26 05:12:44;;;;;;;;;5.00;2.75;;;;;12.60;39.87;99321.84;6308946;22;103179;-76
2022/01/26 05:15:11;;;;;;;;;2.00;2.00;;;;;12.59;39.73;99325.59;6310051;22;102312;-75
2022/01/26 05:17:39;;;;;;;;;1.75;1.75;;;;;12.53;39.46;99314.47;6302533;22;102399;-76
2022/01/26 05:20:08;;;;;;;;;4.25;3.00;;;;;12.55;40.44;99308.88;6303523;22;103882;-76
2022/01/26 05:22:37;;;;;;;;;2.25;1.50;;;;;12.54;40.67;99312.59;6304624;22;102478;-76
2022/01/26 05:25:04;;;;;;;;;3.00;2.25;;;;;12.56;40.27;99312.44;6278732;22;102181;-76
2022/01/26 05:27:31;;;;;;;;;4.00;3.00;;;;;12.53;40.59;99300.91;6325162;22;102145;-77
2022/01/26 05:29:59;;;;;;;;;2.00;1.75;;;;;12.53;40.15;99306.34;6318893;22;103563;-76
2022/01/26 05:32:26;;;;;;;;;2.50;2.50;;;;;12.52;40.26;99303.81;6322287;22;101756;-76
2022/01/26 05:34:53;;;;;;;;;3.00;3.00;;;;;12.49;40.56;99299.63;6325111;22;102144;-76
2022/01/26 05:37:20;;;;;;;;;3.00;2.25;;;;;12.48;40.84;99302.53;6326343;22;101878;-77
2022/01/26 05:39:47;;;;;;;;;3.00;3.00;;;;;12.48;40.82;99303.38;6321728;22;107969;-76
2022/01/26 05:42:15;;;;;;;;;3.00;2.75;;;;;12.45;40.45;99317.34;6325327;22;101619;-77
2022/01/26 05:44:43;;;;;;;;;3.25;3.25;;;;;12.42;39.69;99315.03;6320697;22;101804;-76
2022/01/26 05:47:15;;;;;;;;;2.75;2.00;;;;;12.42;40.62;99312.31;6318745;22;107382;-76
2022/01/26 05:49:43;;;;;;;;;2.50;2.50;;;;;12.41;40.19;99318.75;6319875;22;103383;-76
2022/01/26 05:52:10;;;;;;;;;2.25;2.00;;;;;12.42;40.36;99315.03;6316562;22;101971;-77
2022/01/26 05:54:38;;;;;;;;;2.00;2.00;;;;;12.42;41.01;99309.59;6295934;22;102104;-76
2022/01/26 05:57:05;;;;;;;;;2.00;1.75;;;;;12.43;40.88;99315.84;6321211;22;102560;-76
2022/01/26 05:59:32;;;;;;;;;2.25;2.00;;;;;12.42;41.14;99309.59;6318866;22;103061;-76
2022/01/26 06:02:00;;;;;;;;;2.00;1.75;;;;;12.41;40.62;99316.06;6311817;22;102042;-76
2022/01/26 06:04:28;;;;;;;;;3.00;2.00;;;;;12.39;40.50;99312.69;6321482;22;102047;-76
2022/01/26 06:06:55;;;;;;;;;2.50;2.00;;;;;12.39;41.18;99322.69;6319882;22;102028;-76
2022/01/26 06:09:22;;;;;;;;;3.00;3.00;;;;;12.38;40.59;99311.00;6322589;22;103333;-76
2022/01/26 06:11:49;;;;;;;;;2.00;1.75;;;;;12.37;40.30;99313.94;6322855;22;101959;-76
2022/01/26 06:14:16;;;;;;;;;4.25;3.00;;;;;12.34;40.34;99303.44;6327867;22;102001;-76
2022/01/26 06:16:43;;;;;;;;;3.75;3.00;;;;;12.34;41.25;99307.00;6323165;22;102182;-76
2022/01/26 06:19:10;;;;;;;;;2.75;2.25;;;;;12.32;40.60;99309.09;6324542;22;103491;-76
2022/01/26 06:21:38;;;;;;;;;3.00;2.00;;;;;12.29;40.72;99306.75;6326090;22;101598;-76
2022/01/26 06:24:06;;;;;;;;;2.00;2.00;;;;;12.29;41.15;99314.88;6324520;22;101797;-76
2022/01/26 06:26:33;;;;;;;;;3.25;2.00;;;;;12.29;41.48;99314.88;6327047;22;101711;-76
2022/01/26 06:29:00;;;;;;;;;2.00;2.00;;;;;12.25;41.02;99308.16;6322406;22;103206;-76
2022/01/26 06:31:28;;;;;;;;;3.25;3.00;;;;;12.25;40.52;99315.47;6326588;22;101870;-76
2022/01/26 06:33:56;;;;;;;;;3.00;2.00;;;;;12.23;41.36;99304.84;6323174;22;101604;-76
2022/01/26 06:36:23;;;;;;;;;2.75;2.75;;;;;12.23;40.53;99306.69;6324011;22;101743;-76
2022/01/26 06:38:50;;;;;;;;;2.75;2.00;;;;;12.22;41.04;99299.59;6294438;22;103468;-76
2022/01/26 06:41:23;;;;;;;;;3.75;3.00;;;;;12.21;41.10;99306.88;6328601;22;101623;-76
2022/01/26 06:43:57;;;;;;;;;4.00;3.50;;;;;12.21;41.35;99298.75;6319439;22;101844;-76
2022/01/26 06:47:20;;;;;;;;;3.00;3.00;;;;;12.21;40.74;99296.03;6325436;22;101790;-76
2022/01/26 06:51:51;;;;;;;;;3.75;3.00;;;;;12.18;40.83;99292.88;6324979;22;101811;-76
2022/01/26 06:54:18;;;;;;;;;2.25;2.25;;;;;12.17;40.92;99292.03;6325294;22;101682;-76
2022/01/26 06:56:45;;;;;;;;;2.00;2.00;;;;;12.16;41.28;99297.69;6328561;22;102049;-76
2022/01/26 06:59:18;;;;;;;;;2.00;2.00;;;;;12.15;41.43;99286.00;6327533;22;108177;-76
2022/01/26 07:01:45;;;;;;;;;4.00;2.00;;;;;12.14;41.40;99306.00;6319737;22;101695;-77
2022/01/26 07:04:12;;;;;;;;;6.50;4.00;;;;;12.13;41.05;99298.88;6330638;22;101833;-77
2022/01/26 07:06:39;;;;;;;;;2.00;2.00;;;;;12.12;41.20;99294.50;6319537;22;102111;-76
2022/01/26 07:09:06;;;;;;;;;5.00;2.00;;;;;12.12;41.67;99297.19;6323605;22;103286;-76
2022/01/26 07:11:33;;;;;;;;;9.00;3.50;;;;;12.11;40.98;99295.53;6300177;22;101997;-76
2022/01/26 07:14:02;;;;;;;;;3.75;3.50;;;;;12.10;40.78;99288.44;6323235;22;101813;-76
2022/01/26 07:22:13;;;;;;;;;3.25;3.00;;;;;12.08;41.01;99298.63;6232242;22;102165;-76
2022/01/26 07:24:41;;;;;;;;;4.50;3.25;;;;;12.08;41.13;99291.34;6319986;22;101945;-76
2022/01/26 07:27:09;;;;;;;;;3.25;2.75;;;;;12.07;40.99;99295.06;6324790;22;101943;-77
2022/01/26 07:29:37;;;;;;;;;3.75;3.00;;;;;12.08;41.20;99298.63;6320698;22;103196;-76
2022/01/26 07:32:06;;;;;;;;;2.50;2.50;;;;;12.08;41.40;99301.34;6322274;22;101687;-76
2022/01/26 07:34:33;;;;;;;;;2.75;2.00;;;;;12.07;41.77;99305.91;6324706;22;101898;-76
2022/01/26 07:37:05;;;;;;;;;4.00;3.00;;;;;12.07;41.54;99299.66;6324925;22;101813;-76
2022/01/26 07:39:59;;;;;;;;;3.00;3.00;;;;;12.05;41.57;99293.59;6321072;22;103272;-76
2022/01/26 07:42:26;;;;;;;;;3.00;2.00;;;;;12.06;41.14;99306.13;6322614;22;101488;-76
2022/01/26 07:44:53;;;;;;;;;4.00;2.00;;;;;12.04;40.94;99306.31;6322893;22;101841;-76
2022/01/26 07:47:23;;;;;;;;;2.75;2.50;;;;;12.03;41.14;99303.78;6329416;22;101956;-76
2022/01/26 07:49:53;;;;;;;;;3.25;2.25;;;;;12.03;40.84;99295.66;6324282;22;107981;-76
2022/01/26 07:52:20;;;;;;;;;2.25;2.25;;;;;12.02;41.26;99300.22;6296197;22;102005;-76
2022/01/26 07:54:51;;;;;;;;;5.75;3.00;;;;;12.01;41.78;99305.88;6298139;22;102124;-76
2022/01/26 07:57:22;;;;;;;;;3.50;2.50;;;;;12.03;41.38;99304.63;6328467;22;101892;-76
2022/01/26 07:59:49;;;;;;;;;3.00;3.00;;;;;12.02;41.61;99300.22;6326752;22;107944;-76
2022/01/26 08:02:16;;;;;;;;;3.75;2.50;;;;;12.05;41.18;99307.16;6325858;22;101844;-76
2022/01/26 08:04:43;;;;;;;;;3.00;2.50;;;;;12.03;41.39;99299.19;6302812;22;101674;-76
2022/01/26 08:07:10;;;;;;;;;3.00;2.00;;;;;12.04;41.34;99305.47;6327450;22;102024;-76
2022/01/26 08:09:43;;;;;;;;;3.75;3.00;;;;;12.08;40.88;99301.34;6299750;22;103211;-77
2022/01/26 08:12:11;;;;;;;;;3.50;2.75;;;;;12.09;40.82;99305.72;6328388;22;101560;-76
2022/01/26 08:14:38;;;;;;;;;4.00;3.00;;;;;12.11;41.58;99306.41;6326477;22;101963;-76
2022/01/26 08:17:06;;;;;;;;;4.00;3.00;;;;;12.14;40.46;99300.56;6322813;22;102063;-76
2022/01/26 08:19:33;;;;;;;;;3.25;3.00;;;;;12.14;41.14;99303.28;6323064;22;103304;-76
2022/01/26 08:22:01;;;;;;;;;4.50;3.50;;;;;12.16;40.54;99303.91;6285502;22;101771;-76
2022/01/26 08:24:28;;;;;;;;;3.00;2.00;;;;;12.18;41.35;99295.59;6323030;22;101807;-76
2022/01/26 08:26:59;;;;;;;;;4.00;3.00;;;;;12.18;41.17;99299.16;6332122;22;101955;-76
2022/01/26 08:29:39;;;;;;;;;4.00;3.00;;;;;12.19;41.13;99298.13;6297817;22;103569;-76
2022/01/26 08:32:07;;;;;;;;;4.00;4.00;;;;;12.19;41.38;99292.69;6322520;22;101652;-76
2022/01/26 08:34:34;;;;;;;;;4.00;3.25;;;;;12.18;41.36;99293.72;6325792;22;101854;-76
2022/01/26 08:37:02;;;;;;;;;2.50;2.50;;;;;12.15;40.77;99299.53;6324918;22;103318;-76
2022/01/26 08:39:29;;;;;;;;;4.00;3.00;;;;;12.21;40.80;99303.31;6324599;22;103610;-76
2022/01/26 08:41:57;;;;;;;;;3.00;2.00;;;;;12.20;41.22;99301.69;6319972;22;101936;-76
2022/01/26 08:44:24;;;;;;;;;2.25;2.25;;;;;12.20;40.84;99309.81;6316876;22;102020;-76
2022/01/26 08:46:52;;;;;;;;;4.50;3.75;;;;;12.21;40.90;99298.75;6327838;22;108006;-76
2022/01/26 08:49:19;;;;;;;;;4.50;3.00;;;;;12.20;41.53;99304.38;6326763;22;107900;-76
2022/01/26 08:51:48;;;;;;;;;7.00;4.00;;;;;12.21;40.96;99306.03;6319902;22;102141;-77
2022/01/26 08:54:16;;;;;;;;;3.00;2.50;;;;;12.19;41.21;99313.56;6317875;22;102014;-76
2022/01/26 08:56:44;;;;;;;;;5.25;3.75;;;;;12.17;41.17;99307.47;6323043;22;101878;-76
2022/01/26 08:59:12;;;;;;;;;3.00;3.00;;;;;12.17;40.97;99305.59;6310514;22;102403;-76
2022/01/26 09:01:41;;;;;;;;;3.00;2.50;;;;;12.17;41.26;99308.31;6318328;22;101635;-76
2022/01/26 09:04:09;;;;;;;;;4.00;3.00;;;;;12.18;40.57;99312.72;6296200;22;102032;-76
2022/01/26 09:06:41;;;;;;;;;3.25;3.00;;;;;12.20;40.69;99318.78;6322858;22;102172;-76
2022/01/26 09:09:08;;;;;;;;;5.00;4.00;;;;;12.20;40.72;99310.66;6315423;22;103288;-77
2022/01/26 09:11:38;;;;;;;;;1.50;1.50;;;;;12.21;41.42;99315.00;6324665;22;102152;-76
2022/01/26 09:14:08;;;;;;;;;3.00;2.75;;;;;12.21;41.15;99323.16;6319831;22;101897;-76
2022/01/26 09:16:35;;;;;;;;;2.25;2.25;;;;;12.20;41.22;99309.81;6320668;22;102808;-76
2022/01/26 09:19:13;;;;;;;;;5.00;4.00;;;;;12.20;40.74;99320.66;6325657;22;103524;-76
2022/01/26 09:21:40;;;;;;;;;3.00;3.00;;;;;12.21;40.96;99323.16;6322227;22;102171;-76
2022/01/26 09:24:08;;;;;;;;;3.00;3.00;;;;;12.18;41.15;99311.88;6313769;22;108424;-76
2022/01/26 09:26:36;;;;;;;;;3.75;2.25;;;;;12.17;41.32;99319.16;6294244;22;101757;-82
2022/01/26 09:29:03;;;;;;;;;4.00;3.25;;;;;12.17;41.09;99324.56;6322772;22;104306;-76
2022/01/26 09:31:30;;;;;;;;;3.75;3.00;;;;;12.16;40.81;99325.59;6276915;22;102245;-76
2022/01/26 09:33:57;;;;;;;;;4.75;3.25;;;;;12.16;41.82;99328.31;6299926;22;105851;-76
2022/01/26 09:36:25;;;;;;;;;3.75;3.00;;;;;12.15;41.79;99325.81;6313100;22;102023;-76
2022/01/26 09:38:52;;;;;;;;;7.00;3.00;;;;;12.11;41.18;99330.78;6310640;22;103974;-76
2022/01/26 09:41:19;;;;;;;;;4.00;3.25;;;;;12.12;41.59;99323.47;6307711;22;102313;-76
2022/01/26 09:43:46;;;;;;;;;6.00;3.25;;;;;12.09;41.05;99324.72;6305559;22;102160;-76
2022/01/26 09:46:14;;;;;;;;;3.00;1.75;;;;;12.11;41.04;99324.53;6314306;22;102184;-76
2022/01/26 09:48:42;;;;;;;;;3.00;3.00;;;;;12.10;41.54;99323.69;6269971;22;104131;-77
2022/01/26 09:51:13;;;;;;;;;3.00;3.00;;;;;12.10;41.55;99325.56;6303551;22;102453;-76
2022/01/26 09:53:40;;;;;;;;;3.75;3.50;;;;;12.10;40.78;99320.97;6307636;22;102749;-76
2022/01/26 09:56:07;;;;;;;;;4.00;3.00;;;;;12.10;40.82;99320.97;6307653;22;102077;-76
2022/01/26 09:58:35;;;;;;;;;2.75;2.75;;;;;12.11;40.51;99306.41;6309365;22;104022;-76
2022/01/26 10:01:03;;;;;;;;;3.75;3.00;;;;;12.11;40.95;99316.41;6277465;22;102397;-76
2022/01/26 10:03:34;;;;;;;;;6.00;3.75;;;;;12.11;40.77;99321.81;6305154;22;102093;-76
2022/01/26 10:06:01;;;;;;;;;4.50;3.75;;;;;12.06;41.14;99308.84;6311592;22;101990;-76
2022/01/26 10:09:38;;;;;;;;;5.75;4.00;;;;;12.06;41.38;99308.84;6314158;22;103937;-76
2022/01/26 10:17:23;;;;;;;;;4.50;3.00;;;;;12.02;40.98;99305.66;6310494;22;103762;-76
2022/01/26 10:19:55;;;;;;;;;4.00;4.00;;;;;12.02;41.81;99307.56;6312854;22;108695;-76
2022/01/26 10:22:32;;;;;;;;;4.50;3.00;;;;;12.00;41.30;99309.59;6305924;22;102085;-76
2022/01/26 10:25:18;;;;;;;;;4.00;3.00;;;;;12.01;41.00;99303.16;6280921;22;102493;-76
2022/01/26 10:28:05;;;;;;;;;3.00;3.00;;;;;12.01;40.87;99305.88;6305621;22;102104;-76
2022/01/26 10:30:32;;;;;;;;;2.25;2.25;;;;;11.99;41.47;99300.63;6311072;22;103935;-76
2022/01/26 10:32:59;;;;;;;;;4.75;4.00;;;;;11.97;41.39;99293.72;6308459;22;101816;-76
2022/01/26 10:35:26;;;;;;;;;3.00;3.00;;;;;11.98;41.05;99298.94;6252962;22;102335;-76
2022/01/26 10:37:55;;;;;;;;;6.75;4.00;;;;;11.98;41.54;99288.09;6315064;22;102488;-76
2022/01/26 10:40:25;;;;;;;;;4.50;4.00;;;;;11.98;41.18;99284.53;6315304;22;103942;-76
2022/01/26 10:42:54;;;;;;;;;4.50;3.75;;;;;12.01;41.80;99295.03;6311505;22;102262;-76
2022/01/26 10:45:50;;;;;;;;;3.25;2.00;;;;;12.03;40.94;99282.09;6311732;22;102077;-76
2022/01/26 10:48:26;;;;;;;;;7.50;3.00;;;;;12.02;40.95;99278.53;6312180;22;102121;-76
2022/01/26 10:54:10;;;;;;;;;5.25;4.00;;;;;12.00;41.00;99280.63;6172357;22;102408;-76
2022/01/26 10:56:37;;;;;;;;;4.75;4.00;;;;;11.99;41.03;99267.25;6288014;22;101848;-76
2022/01/26 10:59:04;;;;;;;;;5.00;3.00;;;;;11.96;41.79;99267.66;6308336;22;102419;-76
2022/01/26 11:01:33;;;;;;;;;2.75;2.75;;;;;11.96;41.60;99262.25;6307634;22;104297;-76
2022/01/26 11:04:00;;;;;;;;;5.75;3.75;;;;;11.96;41.40;99268.50;6243588;22;102311;-76
2022/01/26 11:06:28;;;;;;;;;4.00;3.75;;;;;11.97;41.74;99261.22;6303412;22;101989;-76
2022/01/26 11:09:01;;;;;;;;;4.00;3.00;;;;;11.95;41.77;99261.41;6310415;22;102229;-76
2022/01/26 11:11:28;;;;;;;;;3.75;3.00;;;;;11.96;41.34;99251.41;6305264;22;104110;-75
2022/01/26 11:13:56;;;;;;;;;3.25;3.25;;;;;11.96;41.79;99252.25;6274565;22;102200;-76
2022/01/26 11:16:54;;;;;;;;;3.00;3.00;;;;;11.96;41.59;99260.38;6282818;22;102141;-76
2022/01/26 11:19:23;;;;;;;;;3.00;3.00;;;;;11.95;40.96;99260.56;6283659;22;102266;-76
2022/01/26 11:21:50;;;;;;;;;3.50;3.50;;;;;11.93;41.84;99249.91;6307454;22;108705;-76
2022/01/26 11:24:44;;;;;;;;;7.25;3.00;;;;;11.94;41.63;99245.31;6306448;22;102097;-76
2022/01/26 11:27:12;;;;;;;;;3.25;3.00;;;;;11.94;41.13;99250.75;6308670;22;102560;-76
2022/01/26 11:29:43;;;;;;;;;4.00;4.00;;;;;11.93;41.34;99244.47;6305183;22;102105;-76
2022/01/26 11:32:32;;;;;;;;;4.75;4.50;;;;;11.96;41.57;99243.25;6309262;22;104151;-76
2022/01/26 11:35:00;;;;;;;;;6.00;4.00;;;;;11.95;41.84;99247.00;6307024;22;102520;-76
2022/01/26 11:37:37;;;;;;;;;4.00;4.00;;;;;11.95;41.38;99244.28;6277797;22;102435;-76
2022/01/26 11:45:35;;;;;;;;;3.00;3.00;;;;;11.94;41.28;99248.88;6272281;22;102110;-76
2022/01/26 11:48:07;;;;;;;;;2.00;0.50;;;;;11.92;41.60;99241.97;6303340;22;102104;-76
2022/01/26 11:50:36;;;;;;;;;5.25;3.50;;;;;11.92;41.45;99237.41;6306350;22;102239;-76
2022/01/26 11:53:10;;;;;;;;;0.75;0.00;;;;;11.91;41.51;99238.44;6280902;22;104115;-76
2022/01/26 11:55:48;;;;;;;;;4.00;3.75;;;;;11.92;41.90;99241.97;6296355;22;102187;-76
2022/01/26 11:58:39;;;;;;;;;4.00;4.00;;;;;11.91;42.22;99226.75;6274140;22;101879;-76
2022/01/26 12:03:48;;;;;;;;;6.00;4.75;;;;;11.89;41.87;99229.63;6274396;22;104160;-76
2022/01/26 12:06:27;;;;;;;;;5.25;4.00;;;;;11.90;42.06;99225.06;6299277;22;102335;-76
2022/01/26 12:08:55;;;;;;;;;3.25;2.25;;;;;11.88;41.50;99235.28;6308438;22;102358;-76
2022/01/26 12:11:23;;;;;;;;;4.75;4.50;;;;;11.87;41.92;99223.59;6311766;22;103176;-76
2022/01/26 12:13:58;;;;;;;;;4.00;4.00;;;;;11.86;41.86;99221.06;6312004;22;108874;-76
2022/01/26 12:16:44;;;;;;;;;4.00;3.00;;;;;11.88;41.88;99219.00;6283843;22;111149;-76
2022/01/26 12:33:43;;;;;;;;;3.00;3.00;;;;;11.89;42.03;99207.97;6303015;22;102533;-76
2022/01/26 12:35:55;;;;;;;;;5.25;4.00;;;;;11.90;42.18;99208.81;6309188;22;108704;-76
2022/01/26 12:38:45;;;;;;;;;3.00;3.00;;;;;11.89;41.39;99202.53;6311907;22;102178;-76
2022/01/26 12:41:31;;;;;;;;;2.50;2.50;;;;;11.90;42.13;99195.25;6305581;22;102615;-76
2022/01/26 12:44:00;;;;;;;;;4.00;3.50;;;;;11.90;41.62;99200.66;6309390;22;102106;-76
2022/01/26 12:46:29;;;;;;;;;4.00;3.25;;;;;11.90;42.28;99198.81;6311401;22;104077;-76
2022/01/26 12:49:01;;;;;;;;;4.00;3.00;;;;;11.89;41.60;99201.69;6310659;22;102592;-76
2022/01/26 12:51:28;;;;;;;;;3.50;3.00;;;;;11.90;41.47;99206.94;6311757;22;102273;-76
2022/01/26 12:53:57;;;;;;;;;3.00;3.00;;;;;11.89;41.47;99197.13;6285298;22;102432;-76
2022/01/26 12:56:28;;;;;;;;;6.50;3.50;;;;;11.88;41.57;99192.75;6310236;22;103964;-76
2022/01/26 12:59:04;;;;;;;;;4.50;3.00;;;;;11.86;41.83;99185.84;6302227;22;104835;-76
2022/01/26 13:01:32;;;;;;;;;3.00;3.00;;;;;11.86;41.81;99181.25;6302870;22;102131;-76
2022/01/26 13:04:00;;;;;;;;;4.50;4.50;;;;;11.84;41.65;99186.03;6301361;22;102460;-76
2022/01/26 13:06:29;;;;;;;;;4.00;3.25;;;;;11.86;41.81;99183.13;6303160;22;103970;-76
2022/01/26 13:08:57;;;;;;;;;5.00;3.00;;;;;11.85;41.72;99176.03;6271236;22;102297;-76
2022/01/26 13:11:31;;;;;;;;;4.00;3.00;;;;;11.88;41.77;99184.63;6309317;22;102583;-76
2022/01/26 13:14:48;;;;;;;;;4.00;4.00;;;;;11.88;41.88;99170.25;6294012;22;102325;-76
2022/01/26 13:37:03;;;;;;;;;4.00;3.00;;;;;11.86;42.35;99177.72;6281218;22;102595;-76
2022/01/26 13:47:43;;;;;;;;;6.00;4.75;;;;;11.81;42.14;99174.75;6308895;22;102150;-76
2022/01/26 13:50:29;;;;;;;;;4.25;4.00;;;;;11.79;42.07;99182.25;6300463;22;108876;-76
2022/01/26 13:53:05;;;;;;;;;3.75;3.50;;;;;11.81;41.71;99185.59;6301436;22;102579;-76
2022/01/26 14:00:39;;;;;;;;;6.25;4.00;;;;;11.79;41.91;99191.22;6308945;22;104256;-76
2022/01/26 14:03:10;;;;;;;;;6.50;3.25;;;;;11.80;42.25;99182.03;6303681;22;102592;-76
2022/01/26 14:05:37;;;;;;;;;2.00;2.00;;;;;11.77;42.29;99168.88;6286667;22;101989;-76
2022/01/26 14:08:04;;;;;;;;;3.50;3.00;;;;;11.78;42.70;99175.16;6304880;22;101926;-76
2022/01/26 14:10:34;;;;;;;;;3.00;2.00;;;;;11.77;41.94;99173.47;6267431;22;105591;-76
2022/01/26 14:13:03;;;;;;;;;3.75;3.00;;;;;11.78;42.42;99172.44;6293749;22;102088;-76
2022/01/26 14:15:41;;;;;;;;;4.75;3.50;;;;;11.77;42.27;99174.31;6299889;22;102133;-76